Time;durP1;ratioP1;P1;durP2;ratioP2;P2;SDS_P1;SDS_P2;PMS_P1;PMS_P2;Temp;Humidity;BMP_temperature;BMP_pressure;BME280_temperature;BME280_humidity;BME280_pressure;Samples;Min_cycle;Max_cycle;Signal;HPM_P1;HPM_P2
2023/02/20 00:00:14;;;;;;;4.63;2.90;;;3.00;99.90;;;;;;5015951;28;20172;-75
2023/02/20 00:02:40;;;;;;;3.90;2.67;;;2.90;99.90;;;;;;5028779;28;20494;-74
2023/02/20 00:05:06;;;;;;;5.33;3.57;;;2.90;99.90;;;;;;5021105;28;20447;-75
2023/02/20 00:07:31;;;;;;;5.77;4.40;;;3.00;99.90;;;;;;5021321;28;20180;-74
2023/02/20 00:09:57;;;;;;;3.90;3.10;;;3.00;99.90;;;;;;5021467;28;20530;-74
2023/02/20 00:12:22;;;;;;;6.83;3.87;;;3.00;99.90;;;;;;5020896;28;20203;-74
2023/02/20 00:14:48;;;;;;;7.23;4.30;;;3.10;99.90;;;;;;5015726;28;20549;-74
2023/02/20 00:17:14;;;;;;;9.30;5.07;;;3.00;99.90;;;;;;5018011;28;20172;-74
2023/02/20 00:19:39;;;;;;;7.97;4.67;;;3.00;99.90;;;;;;5020665;28;20255;-75
2023/02/20 00:22:05;;;;;;;10.03;4.80;;;2.90;99.90;;;;;;5013044;28;20693;-74
2023/02/20 00:24:30;;;;;;;6.53;4.73;;;3.00;99.90;;;;;;5021151;28;20168;-74
2023/02/20 00:26:56;;;;;;;7.73;4.83;;;3.00;99.90;;;;;;5023488;28;20207;-74
2023/02/20 00:29:23;;;;;;;8.17;5.17;;;3.00;99.90;;;;;;5020029;28;20259;-74
2023/02/20 00:31:53;;;;;;;6.60;3.80;;;3.10;99.90;;;;;;5012809;28;20561;-74
2023/02/20 00:34:20;;;;;;;4.90;3.90;;;3.00;99.90;;;;;;5012152;28;20476;-74
2023/02/20 00:36:46;;;;;;;5.07;3.70;;;3.00;99.90;;;;;;5023638;28;20761;-74
2023/02/20 00:39:12;;;;;;;5.40;3.00;;;3.00;99.90;;;;;;5021586;28;20497;-74
2023/02/20 00:41:37;;;;;;;5.63;3.70;;;2.90;99.90;;;;;;5025126;28;20169;-74
2023/02/20 00:44:03;;;;;;;7.00;3.90;;;2.90;99.90;;;;;;5024179;28;20430;-74
2023/02/20 00:46:29;;;;;;;5.30;4.13;;;2.90;99.90;;;;;;5012686;28;20168;-74
2023/02/20 00:48:54;;;;;;;4.70;3.53;;;2.90;99.90;;;;;;5019759;28;20230;-74
2023/02/20 00:51:20;;;;;;;5.10;3.30;;;2.90;99.90;;;;;;5016111;28;20557;-74
2023/02/20 00:53:46;;;;;;;9.43;5.10;;;2.90;99.90;;;;;;5020853;28;20778;-73
2023/02/20 00:56:11;;;;;;;5.60;4.10;;;2.90;99.90;;;;;;5016889;28;20542;-74
2023/02/20 00:58:37;;;;;;;5.87;4.53;;;2.90;99.90;;;;;;5021663;28;20569;-73
2023/02/20 01:01:03;;;;;;;6.90;3.80;;;2.90;99.90;;;;;;5019556;28;20643;-74
2023/02/20 01:03:28;;;;;;;8.33;3.80;;;2.80;99.90;;;;;;5014340;28;20208;-74
2023/02/20 01:05:54;;;;;;;5.57;2.90;;;2.80;99.90;;;;;;5014068;28;20184;-74
2023/02/20 01:08:20;;;;;;;5.30;4.20;;;2.90;99.90;;;;;;5017646;28;20176;-74
2023/02/20 01:10:45;;;;;;;10.73;4.43;;;3.00;99.90;;;;;;5021782;28;20175;-75
2023/02/20 01:13:11;;;;;;;6.20;4.07;;;3.00;99.90;;;;;;5017411;28;20529;-75
2023/02/20 01:15:36;;;;;;;6.77;4.27;;;3.10;99.90;;;;;;5017569;28;20196;-74
2023/02/20 01:18:04;;;;;;;6.07;4.17;;;3.10;99.90;;;;;;5017788;28;20168;-74
2023/02/20 01:20:30;;;;;;;4.30;3.30;;;3.10;99.90;;;;;;5011284;28;20548;-75
2023/02/20 01:22:56;;;;;;;4.40;3.90;;;3.20;99.90;;;;;;5018633;28;20427;-73
2023/02/20 01:25:21;;;;;;;5.30;2.93;;;3.30;99.90;;;;;;5013101;28;20423;-74
2023/02/20 01:27:47;;;;;;;3.90;3.30;;;3.30;99.90;;;;;;5016344;28;20175;-74
2023/02/20 01:30:13;;;;;;;4.93;3.87;;;3.30;99.90;;;;;;5011029;28;20192;-74
2023/02/20 01:32:39;;;;;;;8.80;4.27;;;3.30;99.90;;;;;;5016881;28;20686;-75
2023/02/20 01:35:05;;;;;;;5.63;3.87;;;3.30;99.90;;;;;;5010584;28;20461;-75
2023/02/20 01:37:31;;;;;;;5.40;3.70;;;3.30;99.90;;;;;;5018050;28;20541;-74
2023/02/20 01:39:57;;;;;;;6.77;4.07;;;3.30;99.90;;;;;;5020239;28;20424;-75
2023/02/20 01:42:27;;;;;;;5.87;3.33;;;3.40;99.90;;;;;;5018514;28;20431;-76
2023/02/20 01:44:52;;;;;;;3.87;3.37;;;3.50;99.90;;;;;;5015208;28;20461;-74
2023/02/20 01:47:21;;;;;;;3.80;3.50;;;3.50;99.90;;;;;;5018965;28;20439;-74
2023/02/20 01:49:59;;;;;;;5.90;4.40;;;3.50;99.90;;;;;;5015393;28;20184;-76
2023/02/20 01:52:27;;;;;;;6.87;4.90;;;3.60;99.90;;;;;;5018746;28;20462;-75
2023/02/20 01:55:03;;;;;;;9.57;5.33;;;3.60;99.90;;;;;;5016766;28;20979;-75
2023/02/20 01:57:32;;;;;;;8.57;3.80;;;3.70;99.90;;;;;;5026570;28;20424;-75
2023/02/20 02:00:11;;;;;;;8.20;2.93;;;3.70;99.90;;;;;;5022331;28;20815;-76
2023/02/20 02:02:40;;;;;;;6.30;4.80;;;3.70;99.90;;;;;;5017919;28;20930;-76
2023/02/20 02:05:08;;;;;;;5.33;3.90;;;3.70;99.90;;;;;;5024770;28;20473;-75
2023/02/20 02:07:34;;;;;;;6.13;3.90;;;3.70;99.90;;;;;;5020859;28;20806;-74
2023/02/20 02:10:10;;;;;;;3.70;2.70;;;3.80;99.90;;;;;;5017295;28;20845;-75
2023/02/20 02:12:36;;;;;;;7.03;2.97;;;3.80;99.90;;;;;;5020237;28;20433;-74
2023/02/20 02:15:02;;;;;;;5.90;4.83;;;3.80;99.90;;;;;;5014315;28;20983;-74
2023/02/20 02:17:55;;;;;;;4.47;3.37;;;3.80;99.90;;;;;;5020317;28;20505;-75
2023/02/20 02:20:39;;;;;;;6.97;4.20;;;3.90;99.90;;;;;;5009469;28;20172;-75
2023/02/20 02:23:43;;;;;;;3.53;3.23;;;3.90;99.90;;;;;;5011550;28;20431;-74
2023/02/20 02:26:29;;;;;;;3.33;3.00;;;4.00;99.90;;;;;;5001500;28;21082;-75
2023/02/20 02:29:07;;;;;;;5.57;3.50;;;4.10;99.90;;;;;;5011988;28;20410;-75
2023/02/20 02:32:13;;;;;;;6.83;3.60;;;4.10;99.90;;;;;;5014224;28;20426;-75
2023/02/20 02:34:57;;;;;;;6.77;4.47;;;4.10;99.90;;;;;;5005624;28;20415;-74
2023/02/20 02:38:01;;;;;;;4.73;3.23;;;4.10;99.90;;;;;;5016739;28;20493;-74
2023/02/20 02:40:38;;;;;;;5.67;3.53;;;4.10;99.90;;;;;;5020423;28;20441;-76
2023/02/20 02:43:21;;;;;;;5.17;3.80;;;4.10;99.90;;;;;;5013099;28;20513;-75
2023/02/20 02:45:58;;;;;;;8.97;4.13;;;4.20;99.90;;;;;;5024625;28;20407;-75
2023/02/20 02:48:51;;;;;;;7.97;4.70;;;4.20;99.90;;;;;;5005324;28;20416;-75
2023/02/20 02:51:22;;;;;;;4.73;3.57;;;4.30;99.90;;;;;;4998226;28;20431;-75
2023/02/20 02:54:12;;;;;;;6.23;4.23;;;4.30;99.90;;;;;;5018726;28;20441;-75
2023/02/20 02:56:47;;;;;;;5.40;3.90;;;4.40;99.90;;;;;;5014876;28;20554;-74
2023/02/20 02:59:23;;;;;;;6.40;4.20;;;4.40;99.90;;;;;;5018299;28;20411;-74
2023/02/20 03:01:55;;;;;;;7.13;4.27;;;4.40;99.90;;;;;;5010814;28;20416;-74
2023/02/20 03:04:23;;;;;;;5.07;4.13;;;4.50;99.90;;;;;;5015209;28;20419;-74
2023/02/20 03:06:54;;;;;;;6.50;4.80;;;4.50;99.90;;;;;;5013606;28;20426;-75
2023/02/20 03:09:37;;;;;;;4.13;3.73;;;4.50;99.90;;;;;;5021921;28;20521;-75
2023/02/20 03:12:06;;;;;;;4.87;3.60;;;4.60;99.90;;;;;;5016168;28;20949;-75
2023/02/20 03:17:57;;;;;;;10.40;4.83;;;4.60;99.90;;;;;;5008215;28;20417;-75
2023/02/20 03:20:23;;;;;;;6.77;3.83;;;4.70;99.90;;;;;;4994651;28;20408;-75
2023/02/20 03:22:59;;;;;;;9.47;5.00;;;4.70;99.90;;;;;;5018939;28;20959;-75
2023/02/20 03:25:34;;;;;;;5.83;4.03;;;4.70;99.90;;;;;;5021973;28;20179;-74
2023/02/20 03:28:09;;;;;;;7.63;4.40;;;4.80;99.90;;;;;;5011719;28;20512;-75
2023/02/20 03:30:38;;;;;;;8.43;5.50;;;5.00;99.90;;;;;;5020575;28;20476;-75
2023/02/20 03:44:23;;;;;;;10.30;5.17;;;5.10;99.90;;;;;;5026329;28;20413;-75
2023/02/20 03:46:50;;;;;;;6.90;4.93;;;5.20;99.90;;;;;;5019992;28;20668;-75
2023/02/20 03:49:21;;;;;;;6.47;4.80;;;5.10;99.90;;;;;;5014931;28;20473;-75
2023/02/20 03:51:59;;;;;;;7.40;4.77;;;5.10;99.90;;;;;;5016799;28;20412;-75
2023/02/20 03:54:27;;;;;;;10.00;4.77;;;5.20;99.90;;;;;;5021157;28;20440;-75
2023/02/20 03:56:58;;;;;;;7.33;5.37;;;5.20;99.90;;;;;;5014401;28;20413;-75
2023/02/20 03:59:37;;;;;;;6.47;4.90;;;5.20;99.90;;;;;;5018208;28;20418;-76
2023/02/20 04:02:07;;;;;;;7.40;4.73;;;5.20;99.90;;;;;;5009423;28;20509;-76
2023/02/20 04:04:40;;;;;;;7.37;4.83;;;5.40;99.90;;;;;;5014346;28;20840;-75
2023/02/20 04:07:10;;;;;;;6.83;4.70;;;5.30;99.90;;;;;;5022298;28;20910;-75
2023/02/20 04:09:41;;;;;;;8.17;5.50;;;5.30;99.90;;;;;;5015052;28;20422;-75
2023/02/20 04:12:25;;;;;;;6.30;5.47;;;5.30;99.90;;;;;;5017940;28;21021;-76
2023/02/20 04:14:53;;;;;;;6.27;4.93;;;5.30;99.90;;;;;;5014954;28;20503;-74
2023/02/20 04:17:24;;;;;;;5.90;5.30;;;5.40;99.90;;;;;;5010401;28;20438;-75
2023/02/20 04:19:51;;;;;;;7.70;6.13;;;5.50;99.90;;;;;;5014381;28;20438;-75
2023/02/20 04:22:34;;;;;;;6.57;5.43;;;5.30;99.90;;;;;;5017514;28;20431;-74
2023/02/20 04:25:09;;;;;;;8.70;5.40;;;5.30;99.90;;;;;;5002029;28;20454;-74
2023/02/20 04:27:35;;;;;;;6.00;5.00;;;5.40;99.90;;;;;;5013032;28;20471;-75
2023/02/20 04:30:01;;;;;;;8.50;5.57;;;5.40;99.90;;;;;;5017607;28;20909;-74
2023/02/20 04:32:26;;;;;;;6.30;4.83;;;5.40;99.90;;;;;;5015000;28;20652;-75
2023/02/20 04:34:52;;;;;;;5.80;4.70;;;5.50;99.90;;;;;;5005500;28;20705;-75
2023/02/20 04:37:18;;;;;;;8.17;5.07;;;5.50;99.90;;;;;;5011222;28;20231;-75
2023/02/20 04:39:45;;;;;;;7.33;4.80;;;5.50;99.90;;;;;;5009606;28;20199;-75
2023/02/20 04:42:11;;;;;;;8.77;6.03;;;5.50;99.90;;;;;;5012555;28;20426;-75
2023/02/20 04:44:38;;;;;;;8.00;5.50;;;5.50;99.90;;;;;;5022464;28;20414;-75
2023/02/20 04:47:06;;;;;;;7.53;5.63;;;5.50;99.90;;;;;;5017453;28;20418;-76
2023/02/20 04:49:32;;;;;;;5.47;4.93;;;5.50;99.90;;;;;;5026884;28;20449;-75
2023/02/20 04:51:58;;;;;;;9.10;5.13;;;5.50;99.90;;;;;;5014246;28;20884;-75
2023/02/20 04:54:24;;;;;;;7.67;5.13;;;5.60;99.90;;;;;;5019111;28;20235;-75
2023/02/20 04:56:50;;;;;;;6.97;5.00;;;5.60;99.90;;;;;;5019947;28;20466;-75
2023/02/20 04:59:16;;;;;;;6.27;4.70;;;5.60;99.90;;;;;;5015467;28;20172;-75
2023/02/20 05:01:46;;;;;;;6.97;6.20;;;5.50;99.90;;;;;;5014237;28;20897;-75
2023/02/20 05:04:15;;;;;;;5.73;3.83;;;5.40;99.90;;;;;;5019052;28;20777;-75
2023/02/20 05:06:43;;;;;;;7.70;5.00;;;5.50;99.90;;;;;;5020832;28;20777;-75
2023/02/20 05:09:09;;;;;;;9.87;5.30;;;5.50;99.90;;;;;;5017424;28;20406;-74
2023/02/20 05:11:37;;;;;;;6.83;5.20;;;5.60;99.90;;;;;;5015016;28;20863;-75
2023/02/20 05:14:03;;;;;;;7.43;5.10;;;5.60;99.90;;;;;;5018312;28;20465;-75
2023/02/20 05:16:28;;;;;;;5.83;4.63;;;5.60;99.90;;;;;;5021105;28;20455;-75
2023/02/20 05:18:54;;;;;;;6.23;5.37;;;5.60;99.90;;;;;;5027636;28;20756;-75
2023/02/20 05:24:05;;;;;;;6.63;4.90;;;5.70;99.90;;;;;;5018227;28;20199;-75
2023/02/20 05:26:30;;;;;;;7.03;5.40;;;5.70;99.90;;;;;;5015661;28;20406;-75
2023/02/20 05:28:56;;;;;;;7.10;4.87;;;5.70;99.90;;;;;;5023310;28;20501;-75
2023/02/20 05:31:21;;;;;;;7.00;4.83;;;5.70;99.90;;;;;;5021243;28;20181;-75
2023/02/20 05:33:47;;;;;;;6.67;5.63;;;5.90;99.90;;;;;;5018852;28;20364;-75
2023/02/20 05:36:13;;;;;;;9.00;5.07;;;5.80;99.90;;;;;;5023107;28;20196;-76
2023/02/20 05:38:40;;;;;;;6.87;5.47;;;5.70;99.90;;;;;;5015983;28;20196;-75
2023/02/20 05:41:06;;;;;;;7.63;5.63;;;5.70;99.90;;;;;;5016072;28;20255;-76
2023/02/20 05:43:31;;;;;;;9.63;6.50;;;5.80;99.90;;;;;;5021369;28;20527;-76
2023/02/20 05:45:57;;;;;;;7.33;5.90;;;5.90;99.90;;;;;;5023237;28;20267;-76
2023/02/20 05:48:23;;;;;;;10.07;6.40;;;5.90;99.90;;;;;;5021943;28;20183;-75
2023/02/20 05:50:49;;;;;;;8.43;5.63;;;5.80;99.90;;;;;;5026175;28;20182;-75
2023/02/20 05:53:15;;;;;;;6.40;5.17;;;6.00;99.90;;;;;;5020693;28;20192;-75
2023/02/20 05:55:40;;;;;;;8.67;6.23;;;5.90;99.90;;;;;;5023454;28;20462;-74
2023/02/20 05:58:06;;;;;;;8.30;5.63;;;5.90;99.90;;;;;;5015133;28;20172;-77
2023/02/20 06:00:32;;;;;;;8.13;5.90;;;5.90;99.90;;;;;;5014223;28;20166;-75
2023/02/20 06:02:57;;;;;;;9.83;5.57;;;5.80;99.90;;;;;;5026888;28;20211;-75
2023/02/20 06:05:25;;;;;;;7.80;6.03;;;5.80;99.90;;;;;;5018069;28;20187;-76
2023/02/20 06:07:51;;;;;;;8.83;5.47;;;5.80;99.90;;;;;;5016057;28;20183;-74
2023/02/20 06:10:18;;;;;;;8.13;6.77;;;5.90;99.90;;;;;;5012164;28;20513;-75
2023/02/20 06:12:43;;;;;;;6.70;5.47;;;5.80;99.90;;;;;;5022509;28;20200;-75
2023/02/20 06:15:09;;;;;;;6.00;5.00;;;5.80;99.90;;;;;;5014996;28;20846;-76
2023/02/20 06:17:35;;;;;;;8.40;5.13;;;5.90;99.90;;;;;;5013605;28;20173;-74
2023/02/20 06:20:00;;;;;;;6.90;5.30;;;6.00;99.90;;;;;;5022528;28;20251;-74
2023/02/20 06:22:26;;;;;;;7.80;5.80;;;5.90;99.90;;;;;;5022917;28;20205;-74
2023/02/20 06:24:51;;;;;;;7.97;6.40;;;5.90;99.90;;;;;;5017836;28;20678;-76
2023/02/20 06:27:17;;;;;;;6.10;4.87;;;5.90;99.90;;;;;;5021930;28;20182;-75
2023/02/20 06:29:46;;;;;;;8.93;6.47;;;5.80;99.90;;;;;;5023457;28;20176;-75
2023/02/20 06:32:12;;;;;;;8.33;5.40;;;5.80;99.90;;;;;;5018152;28;20214;-75
2023/02/20 06:34:37;;;;;;;6.83;5.23;;;5.80;99.90;;;;;;5016313;28;20781;-76
2023/02/20 06:37:04;;;;;;;9.43;6.00;;;5.80;99.90;;;;;;5022015;28;20172;-76
2023/02/20 06:39:31;;;;;;;9.60;6.67;;;5.80;99.90;;;;;;5015163;28;20168;-76
2023/02/20 06:41:56;;;;;;;11.27;6.63;;;5.80;99.90;;;;;;5014901;28;20586;-76
2023/02/20 06:44:22;;;;;;;10.10;6.83;;;5.80;99.90;;;;;;5022185;28;20458;-74
2023/02/20 06:46:48;;;;;;;6.80;5.63;;;5.90;99.90;;;;;;5015159;28;20184;-75
2023/02/20 06:49:14;;;;;;;8.83;7.50;;;5.90;99.90;;;;;;5007180;28;20177;-75
2023/02/20 06:51:40;;;;;;;9.87;6.40;;;5.90;99.90;;;;;;5017081;28;20419;-76
2023/02/20 06:54:06;;;;;;;16.70;9.53;;;5.90;99.90;;;;;;5019363;28;20500;-75
2023/02/20 06:56:34;;;;;;;9.57;8.33;;;5.90;99.90;;;;;;5023524;28;20949;-75
2023/02/20 06:59:02;;;;;;;11.73;8.50;;;5.90;99.90;;;;;;5015971;28;20421;-76
2023/02/20 07:01:35;;;;;;;13.53;8.77;;;6.00;99.90;;;;;;5020839;28;20429;-76
2023/02/20 07:04:01;;;;;;;11.70;9.00;;;6.00;99.90;;;;;;5012746;28;20537;-75
2023/02/20 07:06:27;;;;;;;10.00;7.07;;;6.00;99.90;;;;;;5021422;28;20465;-75
2023/02/20 07:08:52;;;;;;;17.53;9.80;;;6.00;99.90;;;;;;5014504;28;20231;-75
2023/02/20 07:11:20;;;;;;;14.33;8.87;;;6.10;99.90;;;;;;5021954;28;20180;-75
2023/02/20 07:13:45;;;;;;;12.93;9.03;;;6.10;99.90;;;;;;5023770;28;20581;-75
2023/02/20 07:16:11;;;;;;;10.30;7.83;;;6.10;99.90;;;;;;5013901;28;20459;-75
2023/02/20 07:18:37;;;;;;;13.43;8.50;;;6.10;99.90;;;;;;5019693;28;20171;-75
2023/02/20 07:21:03;;;;;;;10.80;7.73;;;6.20;99.90;;;;;;5018039;28;20173;-75
2023/02/20 07:23:28;;;;;;;12.00;9.10;;;6.20;99.90;;;;;;5020545;28;20704;-75
2023/02/20 07:25:54;;;;;;;15.50;8.07;;;6.30;99.90;;;;;;5021863;28;20177;-76
2023/02/20 07:28:20;;;;;;;11.90;8.20;;;6.30;99.90;;;;;;5021161;28;20208;-75
2023/02/20 07:30:48;;;;;;;13.67;8.57;;;6.30;99.90;;;;;;5014939;28;20180;-75
2023/02/20 07:33:14;;;;;;;10.40;6.90;;;6.40;99.90;;;;;;5013631;28;20439;-77
2023/02/20 07:35:40;;;;;;;12.07;8.87;;;6.40;99.90;;;;;;5015015;28;20459;-75
2023/02/20 07:38:06;;;;;;;11.57;8.33;;;6.40;99.90;;;;;;5009824;28;20418;-74
2023/02/20 07:40:31;;;;;;;10.37;7.80;;;6.50;99.90;;;;;;5004387;28;20181;-75
2023/02/20 07:42:57;;;;;;;9.97;7.23;;;6.60;99.90;;;;;;5013735;28;20440;-77
2023/02/20 07:45:23;;;;;;;11.03;8.80;;;6.60;99.90;;;;;;5011650;28;20234;-76
2023/02/20 07:47:48;;;;;;;8.57;6.50;;;6.60;99.90;;;;;;5010497;28;20602;-75
2023/02/20 07:50:15;;;;;;;12.23;7.67;;;6.70;99.90;;;;;;5027189;28;20407;-76
2023/02/20 07:52:41;;;;;;;12.80;7.50;;;6.70;99.90;;;;;;5018865;28;20570;-76
2023/02/20 07:55:07;;;;;;;9.00;7.20;;;6.70;99.90;;;;;;5013460;28;20810;-76
2023/02/20 07:57:35;;;;;;;10.97;7.90;;;6.70;99.90;;;;;;5011722;28;20539;-75
2023/02/20 08:00:01;;;;;;;11.77;8.70;;;6.80;99.90;;;;;;5013090;28;20415;-75
2023/02/20 08:02:26;;;;;;;10.30;7.37;;;6.80;99.90;;;;;;5013360;28;20455;-75
2023/02/20 08:04:52;;;;;;;10.67;8.40;;;6.90;99.90;;;;;;5017829;28;20215;-76
2023/02/20 08:07:17;;;;;;;10.93;7.23;;;6.80;99.90;;;;;;5020901;28;20188;-76
2023/02/20 08:09:46;;;;;;;10.80;7.60;;;6.90;99.90;;;;;;5026615;28;20171;-75
2023/02/20 08:12:12;;;;;;;8.90;6.10;;;7.00;99.90;;;;;;5020782;28;20200;-75
2023/02/20 08:14:38;;;;;;;14.90;9.93;;;7.00;99.90;;;;;;5012846;28;20423;-75
2023/02/20 08:17:03;;;;;;;9.63;7.23;;;7.00;99.90;;;;;;5013314;28;20410;-75
2023/02/20 08:19:29;;;;;;;10.43;6.77;;;7.00;99.90;;;;;;5028639;28;20172;-75
2023/02/20 08:21:55;;;;;;;9.10;5.50;;;7.10;99.90;;;;;;5013142;28;20172;-76
2023/02/20 08:24:20;;;;;;;12.20;7.80;;;7.10;99.90;;;;;;5020316;28;20623;-76
2023/02/20 08:26:47;;;;;;;8.20;6.43;;;7.20;99.90;;;;;;5026874;28;20214;-76
2023/02/20 08:29:14;;;;;;;10.77;7.50;;;7.20;99.90;;;;;;5011899;28;20547;-71
2023/02/20 08:31:39;;;;;;;9.90;8.17;;;7.20;99.90;;;;;;5019041;28;20766;-71
2023/02/20 08:34:05;;;;;;;8.20;5.60;;;7.20;99.90;;;;;;5012741;28;20497;-74
2023/02/20 08:36:31;;;;;;;7.70;5.97;;;7.30;99.90;;;;;;5020088;28;20250;-75
2023/02/20 08:38:56;;;;;;;7.70;6.30;;;7.40;99.90;;;;;;5014864;28;20176;-75
2023/02/20 08:41:22;;;;;;;9.10;6.30;;;7.40;99.90;;;;;;5012845;28;20180;-75
2023/02/20 08:43:48;;;;;;;6.70;5.40;;;7.40;99.90;;;;;;5027047;28;20813;-75
2023/02/20 08:46:14;;;;;;;8.77;6.77;;;7.40;99.90;;;;;;5020286;28;20231;-75
2023/02/20 08:48:40;;;;;;;10.47;6.67;;;7.60;99.90;;;;;;5017014;28;20170;-75
2023/02/20 08:51:06;;;;;;;9.57;6.03;;;7.60;99.90;;;;;;5017477;28;20489;-74
2023/02/20 08:53:33;;;;;;;7.27;5.63;;;7.60;99.90;;;;;;5014165;28;20431;-74
2023/02/20 08:55:59;;;;;;;8.37;5.60;;;7.60;99.90;;;;;;5025289;28;20447;-74
2023/02/20 08:58:25;;;;;;;10.70;7.07;;;7.60;99.90;;;;;;5005715;28;20904;-75
2023/02/20 09:00:51;;;;;;;6.50;5.40;;;7.60;99.90;;;;;;4999355;28;20670;-74
2023/02/20 09:03:17;;;;;;;7.37;6.00;;;7.60;99.90;;;;;;5020166;28;20462;-74
2023/02/20 09:05:43;;;;;;;6.40;5.53;;;7.70;99.90;;;;;;5008228;28;20416;-74
2023/02/20 09:08:09;;;;;;;8.10;5.27;;;7.70;99.90;;;;;;5002029;28;20172;-74
2023/02/20 09:10:35;;;;;;;6.30;5.03;;;7.80;99.90;;;;;;5012171;28;20463;-74
2023/02/20 09:13:01;;;;;;;11.37;5.90;;;8.00;99.90;;;;;;5018722;28;20938;-74
2023/02/20 09:15:26;;;;;;;7.17;5.10;;;7.90;99.90;;;;;;5014193;28;20197;-74
2023/02/20 09:17:52;;;;;;;8.20;5.37;;;7.90;99.90;;;;;;5011480;28;20412;-74
2023/02/20 09:20:20;;;;;;;6.10;4.33;;;8.00;99.90;;;;;;5011676;28;20247;-74
2023/02/20 09:22:49;;;;;;;6.50;5.60;;;8.00;99.90;;;;;;5018086;28;20463;-68
2023/02/20 09:25:16;;;;;;;5.73;4.00;;;8.10;99.90;;;;;;5015901;28;20426;-67
2023/02/20 09:27:42;;;;;;;5.47;4.50;;;8.10;99.90;;;;;;5012349;28;20418;-70
2023/02/20 09:30:08;;;;;;;6.43;4.10;;;8.30;99.90;;;;;;5018799;28;20420;-71
2023/02/20 09:32:34;;;;;;;8.20;5.63;;;8.40;99.90;;;;;;5000285;28;20434;-71
2023/02/20 09:35:00;;;;;;;7.43;5.23;;;8.30;99.90;;;;;;5001016;28;20455;-71
2023/02/20 09:37:25;;;;;;;6.07;4.03;;;8.50;99.90;;;;;;5015706;28;20180;-70
2023/02/20 09:39:51;;;;;;;6.27;3.73;;;8.40;99.90;;;;;;5011418;28;20745;-69
2023/02/20 09:42:16;;;;;;;8.70;4.40;;;8.40;99.90;;;;;;5018642;28;20192;-69
2023/02/20 09:44:54;;;;;;;4.37;3.17;;;8.50;99.90;;;;;;5023264;28;20532;-69
2023/02/20 09:47:58;;;;;;;6.50;4.73;;;8.60;99.90;;;;;;5007882;28;20169;-70
2023/02/20 09:50:53;;;;;;;5.73;4.53;;;8.70;99.90;;;;;;4976732;28;20421;-70
2023/02/20 09:53:29;;;;;;;8.83;4.93;;;8.70;99.90;;;;;;5015373;28;20513;-71
2023/02/20 09:55:56;;;;;;;4.83;3.87;;;8.70;99.90;;;;;;5012271;28;20447;-69
2023/02/20 09:58:42;;;;;;;5.37;3.43;;;8.90;99.90;;;;;;5022972;28;20414;-69
2023/02/20 10:01:10;;;;;;;5.87;3.57;;;8.90;99.90;;;;;;5012662;28;20486;-70
2023/02/20 10:03:48;;;;;;;5.87;4.03;;;8.90;99.90;;;;;;5019528;28;20448;-70
2023/02/20 10:06:20;;;;;;;5.50;4.20;;;9.10;99.90;;;;;;5052450;22;20547;-69
2023/02/20 10:08:49;;;;;;;6.60;4.50;;;9.10;99.90;;;;;;5044627;28;20413;-69
2023/02/20 10:11:26;;;;;;;4.47;3.60;;;9.10;99.90;;;;;;5034887;28;20438;-70
2023/02/20 10:13:56;;;;;;;12.10;4.30;;;9.30;99.90;;;;;;5039522;28;20791;-69
2023/02/20 10:16:34;;;;;;;4.30;3.17;;;9.30;99.90;;;;;;5045897;28;20491;-68
2023/02/20 10:19:05;;;;;;;5.30;4.07;;;9.20;99.90;;;;;;5032616;28;20772;-68
2023/02/20 10:21:50;;;;;;;5.30;4.00;;;9.20;99.90;;;;;;5045726;28;20744;-69
2023/02/20 10:24:38;;;;;;;5.53;3.87;;;9.10;99.90;;;;;;5036318;28;20797;-69
2023/02/20 10:27:27;;;;;;;7.23;4.20;;;9.30;99.90;;;;;;5033022;28;20463;-70
2023/02/20 10:29:54;;;;;;;7.50;3.90;;;9.30;99.90;;;;;;5024896;28;20464;-68
2023/02/20 10:32:49;;;;;;;5.60;3.43;;;9.30;99.90;;;;;;5034019;28;20399;-70
2023/02/20 10:35:24;;;;;;;4.27;3.87;;;9.30;99.90;;;;;;4999901;28;20875;-69
2023/02/20 10:37:54;;;;;;;3.50;3.17;;;9.40;99.90;;;;;;5045201;28;20487;-69
2023/02/20 10:40:30;;;;;;;4.63;3.73;;;9.40;99.90;;;;;;5045582;28;20402;-68
2023/02/20 10:43:16;;;;;;;6.37;3.80;;;9.50;99.90;;;;;;5035297;28;20451;-69
2023/02/20 10:46:05;;;;;;;7.80;4.17;;;9.50;99.90;;;;;;5043280;28;20443;-72
2023/02/20 10:48:32;;;;;;;4.47;3.27;;;9.60;99.90;;;;;;5044797;28;20423;-68
2023/02/20 10:51:18;;;;;;;5.60;4.20;;;9.70;99.90;;;;;;5035012;28;20440;-68
2023/02/20 10:54:18;;;;;;;5.60;3.77;;;9.90;99.90;;;;;;5050668;28;20925;-71
2023/02/20 10:56:51;;;;;;;4.23;3.70;;;9.70;99.90;;;;;;5042202;28;20493;-68
2023/02/20 10:59:32;;;;;;;7.80;4.37;;;9.80;99.90;;;;;;5041245;28;20451;-68
2023/02/20 11:02:02;;;;;;;3.93;3.23;;;9.90;99.90;;;;;;5033241;28;20510;-68
2023/02/20 11:04:33;;;;;;;7.53;3.97;;;9.90;99.90;;;;;;5042551;28;20409;-69
2023/02/20 11:07:03;;;;;;;6.43;3.30;;;10.00;99.90;;;;;;5040447;28;20421;-70
2023/02/20 11:09:29;;;;;;;4.50;3.53;;;10.20;99.90;;;;;;5037902;28;20773;-70
2023/02/20 11:11:55;;;;;;;4.60;3.33;;;10.00;99.90;;;;;;5041038;28;20406;-69
2023/02/20 11:14:39;;;;;;;7.23;3.60;;;9.90;99.90;;;;;;5040311;28;20171;-68
2023/02/20 11:17:14;;;;;;;4.07;3.27;;;9.90;99.90;;;;;;5033334;28;20181;-69
2023/02/20 11:19:47;;;;;;;7.60;3.97;;;9.90;99.90;;;;;;5042614;28;20410;-68
2023/02/20 11:22:15;;;;;;;5.53;3.90;;;10.00;99.90;;;;;;5046489;28;20921;-69
2023/02/20 11:24:42;;;;;;;5.07;3.73;;;10.00;99.90;;;;;;5042632;28;20452;-68
2023/02/20 11:27:23;;;;;;;8.00;3.40;;;10.10;99.90;;;;;;5046400;28;20416;-68
2023/02/20 11:30:20;;;;;;;3.87;2.77;;;10.20;99.90;;;;;;5041608;28;20406;-69
2023/02/20 11:32:48;;;;;;;4.70;3.53;;;10.20;99.90;;;;;;5040924;28;20406;-68
2023/02/20 11:35:16;;;;;;;6.80;4.10;;;10.10;99.90;;;;;;5040884;28;20450;-68
2023/02/20 11:37:46;;;;;;;6.03;4.10;;;10.10;99.90;;;;;;5042830;28;20409;-67
2023/02/20 11:40:30;;;;;;;4.37;3.70;;;10.10;99.90;;;;;;5030730;28;20417;-69
2023/02/20 11:43:17;;;;;;;4.77;3.63;;;10.10;99.90;;;;;;5025156;28;20492;-69
2023/02/20 11:45:43;;;;;;;6.03;3.70;;;10.10;99.90;;;;;;5040367;28;20425;-68
2023/02/20 11:48:13;;;;;;;6.90;4.30;;;10.00;99.90;;;;;;5038609;28;20406;-68
2023/02/20 11:50:44;;;;;;;5.70;3.53;;;10.10;99.90;;;;;;5034555;28;20259;-68
2023/02/20 11:53:28;;;;;;;3.87;3.47;;;10.10;99.90;;;;;;5044061;28;20409;-70
2023/02/20 11:56:16;;;;;;;4.73;3.40;;;10.10;99.90;;;;;;5041792;28;20966;-69
2023/02/20 11:58:44;;;;;;;4.60;3.53;;;10.10;99.90;;;;;;5035755;28;20437;-69
2023/02/20 12:01:29;;;;;;;5.50;3.63;;;10.00;99.90;;;;;;5040604;28;20405;-68
2023/02/20 12:03:57;;;;;;;6.40;3.50;;;10.10;99.90;;;;;;5035517;28;20468;-67
2023/02/20 12:06:32;;;;;;;6.00;4.20;;;10.10;99.90;;;;;;5040622;28;20954;-68
2023/02/20 12:09:00;;;;;;;7.33;5.47;;;10.00;99.90;;;;;;5035111;28;20931;-70
2023/02/20 12:11:27;;;;;;;4.67;4.17;;;10.00;99.90;;;;;;5033923;28;20406;-67
2023/02/20 12:13:56;;;;;;;9.17;4.77;;;10.10;99.90;;;;;;5045368;28;20744;-67
2023/02/20 12:16:29;;;;;;;9.47;5.83;;;10.10;99.90;;;;;;5042478;28;20468;-69
2023/02/20 12:19:25;;;;;;;10.43;5.30;;;10.10;99.90;;;;;;5027808;28;20896;-68
2023/02/20 12:22:02;;;;;;;9.00;5.30;;;10.20;99.90;;;;;;5036087;28;20413;-66
2023/02/20 12:24:53;;;;;;;7.00;5.07;;;10.20;99.90;;;;;;5048243;28;20404;-67
2023/02/20 12:27:40;;;;;;;8.17;5.73;;;10.30;99.90;;;;;;5040260;28;20442;-70
2023/02/20 12:30:20;;;;;;;6.67;5.17;;;10.30;99.90;;;;;;5032291;28;20451;-67
2023/02/20 12:33:23;;;;;;;6.50;5.07;;;10.20;99.90;;;;;;5034993;28;20406;-68
2023/02/20 12:36:19;;;;;;;5.93;5.20;;;10.10;99.90;;;;;;5039226;28;20449;-69
2023/02/20 12:39:18;;;;;;;8.27;5.30;;;10.10;99.90;;;;;;5042018;28;20776;-69
2023/02/20 12:42:26;;;;;;;7.47;6.63;;;10.10;99.90;;;;;;5029641;28;20425;-68
2023/02/20 12:45:04;;;;;;;10.93;6.77;;;10.10;99.90;;;;;;5036240;28;20487;-68
2023/02/20 12:47:42;;;;;;;6.53;5.43;;;10.20;99.90;;;;;;5039425;28;20408;-68
2023/02/20 12:50:35;;;;;;;9.60;5.10;;;10.30;99.90;;;;;;5031916;28;20409;-67
2023/02/20 12:53:35;;;;;;;8.83;6.33;;;10.20;99.90;;;;;;5028336;28;20501;-68
2023/02/20 12:56:31;;;;;;;6.73;6.03;;;10.10;99.90;;;;;;5042493;28;20468;-67
2023/02/20 12:59:27;;;;;;;10.87;6.37;;;10.10;99.90;;;;;;5033718;28;20402;-67
2023/02/20 13:01:54;;;;;;;7.00;6.33;;;10.10;99.90;;;;;;5033259;28;20443;-67
2023/02/20 13:04:27;;;;;;;7.77;6.80;;;10.10;99.90;;;;;;5039389;28;20433;-67
2023/02/20 13:07:00;;;;;;;8.37;6.80;;;10.00;99.90;;;;;;5023733;28;20553;-68
2023/02/20 13:09:39;;;;;;;10.00;7.87;;;10.00;99.90;;;;;;5032392;28;20427;-67
2023/02/20 13:12:11;;;;;;;11.17;8.93;;;9.90;99.90;;;;;;5024505;28;20415;-68
2023/02/20 13:14:40;;;;;;;12.77;7.63;;;9.90;99.90;;;;;;5040176;28;20761;-67
2023/02/20 13:17:28;;;;;;;13.30;8.70;;;9.90;99.90;;;;;;5036313;28;20940;-68
2023/02/20 13:20:15;;;;;;;9.77;7.90;;;9.80;99.90;;;;;;5030610;28;20469;-68
2023/02/20 13:22:41;;;;;;;11.37;8.37;;;9.70;99.90;;;;;;5038231;28;20543;-70
2023/02/20 13:25:41;;;;;;;13.80;9.60;;;9.80;99.90;;;;;;5039250;28;20902;-68
2023/02/20 13:28:28;;;;;;;8.87;7.77;;;9.50;99.90;;;;;;5023992;28;20179;-68
2023/02/20 13:31:20;;;;;;;13.40;8.90;;;9.40;99.90;;;;;;5026786;28;20410;-68